sensor_id;sensor_type;location;lat;lon;timestamp;P1;durP1;ratioP1;P2;durP2;ratioP2
44078;SDS011;29744;49.078;12.878;2023-06-26T00:01:27;4.38;;;2.67;;
44078;SDS011;29744;49.078;12.878;2023-06-26T00:06:33;4.47;;;2.85;;
44078;SDS011;29744;49.078;12.878;2023-06-26T00:11:34;4.70;;;2.87;;
44078;SDS011;29744;49.078;12.878;2023-06-26T00:16:34;4.03;;;2.70;;
44078;SDS011;29744;49.078;12.878;2023-06-26T00:21:35;4.53;;;2.90;;
44078;SDS011;29744;49.078;12.878;2023-06-26T00:26:35;4.10;;;2.78;;
44078;SDS011;29744;49.078;12.878;2023-06-26T00:31:36;4.15;;;2.80;;
44078;SDS011;29744;49.078;12.878;2023-06-26T00:36:37;5.32;;;2.83;;
44078;SDS011;29744;49.078;12.878;2023-06-26T00:41:38;4.10;;;2.70;;
44078;SDS011;29744;49.078;12.878;2023-06-26T00:46:38;4.75;;;2.85;;
44078;SDS011;29744;49.078;12.878;2023-06-26T00:51:38;3.93;;;2.67;;
44078;SDS011;29744;49.078;12.878;2023-06-26T00:56:39;3.78;;;2.55;;
44078;SDS011;29744;49.078;12.878;2023-06-26T01:01:40;4.97;;;3.10;;
44078;SDS011;29744;49.078;12.878;2023-06-26T01:06:40;4.10;;;3.03;;
44078;SDS011;29744;49.078;12.878;2023-06-26T01:11:40;3.67;;;2.40;;
44078;SDS011;29744;49.078;12.878;2023-06-26T01:16:41;4.30;;;2.85;;
44078;SDS011;29744;49.078;12.878;2023-06-26T01:21:47;3.78;;;2.53;;
44078;SDS011;29744;49.078;12.878;2023-06-26T01:26:50;4.10;;;2.75;;
44078;SDS011;29744;49.078;12.878;2023-06-26T01:31:51;4.10;;;2.40;;
44078;SDS011;29744;49.078;12.878;2023-06-26T01:36:52;4.63;;;3.00;;
44078;SDS011;29744;49.078;12.878;2023-06-26T01:41:52;4.03;;;2.67;;
44078;SDS011;29744;49.078;12.878;2023-06-26T01:47:02;4.55;;;2.70;;
44078;SDS011;29744;49.078;12.878;2023-06-26T01:57:23;3.78;;;2.50;;
44078;SDS011;29744;49.078;12.878;2023-06-26T02:02:27;4.28;;;2.67;;
44078;SDS011;29744;49.078;12.878;2023-06-26T02:07:28;4.10;;;2.85;;
44078;SDS011;29744;49.078;12.878;2023-06-26T02:12:29;4.03;;;2.90;;
44078;SDS011;29744;49.078;12.878;2023-06-26T02:17:29;4.37;;;2.50;;
44078;SDS011;29744;49.078;12.878;2023-06-26T02:22:30;4.10;;;2.70;;
44078;SDS011;29744;49.078;12.878;2023-06-26T02:27:30;5.00;;;3.00;;
44078;SDS011;29744;49.078;12.878;2023-06-26T02:32:30;3.60;;;2.40;;
44078;SDS011;29744;49.078;12.878;2023-06-26T02:37:31;3.78;;;2.65;;
44078;SDS011;29744;49.078;12.878;2023-06-26T02:42:31;3.97;;;2.70;;
44078;SDS011;29744;49.078;12.878;2023-06-26T02:47:32;3.90;;;2.67;;
44078;SDS011;29744;49.078;12.878;2023-06-26T02:52:32;4.40;;;2.85;;
44078;SDS011;29744;49.078;12.878;2023-06-26T02:57:32;4.50;;;2.78;;
44078;SDS011;29744;49.078;12.878;2023-06-26T03:02:32;4.20;;;2.78;;
44078;SDS011;29744;49.078;12.878;2023-06-26T03:07:33;3.67;;;2.50;;
44078;SDS011;29744;49.078;12.878;2023-06-26T03:12:33;4.00;;;2.80;;
44078;SDS011;29744;49.078;12.878;2023-06-26T03:17:33;3.85;;;2.70;;
44078;SDS011;29744;49.078;12.878;2023-06-26T03:22:34;4.30;;;2.88;;
44078;SDS011;29744;49.078;12.878;2023-06-26T03:27:34;4.33;;;2.77;;
44078;SDS011;29744;49.078;12.878;2023-06-26T03:32:34;3.80;;;2.50;;
44078;SDS011;29744;49.078;12.878;2023-06-26T03:37:35;4.40;;;2.72;;
44078;SDS011;29744;49.078;12.878;2023-06-26T03:42:35;4.18;;;2.47;;
44078;SDS011;29744;49.078;12.878;2023-06-26T03:47:35;4.17;;;2.80;;
44078;SDS011;29744;49.078;12.878;2023-06-26T03:52:35;3.85;;;2.60;;
44078;SDS011;29744;49.078;12.878;2023-06-26T03:57:36;4.88;;;2.88;;
44078;SDS011;29744;49.078;12.878;2023-06-26T04:02:36;4.32;;;2.83;;
44078;SDS011;29744;49.078;12.878;2023-06-26T04:07:37;4.35;;;2.92;;
44078;SDS011;29744;49.078;12.878;2023-06-26T04:12:37;3.50;;;2.40;;
44078;SDS011;29744;49.078;12.878;2023-06-26T04:17:38;4.22;;;2.72;;
44078;SDS011;29744;49.078;12.878;2023-06-26T04:22:38;4.50;;;2.97;;
44078;SDS011;29744;49.078;12.878;2023-06-26T04:27:38;3.80;;;2.70;;
44078;SDS011;29744;49.078;12.878;2023-06-26T04:32:39;3.92;;;2.70;;
44078;SDS011;29744;49.078;12.878;2023-06-26T04:37:39;4.18;;;2.72;;
44078;SDS011;29744;49.078;12.878;2023-06-26T04:42:42;4.20;;;2.63;;
44078;SDS011;29744;49.078;12.878;2023-06-26T04:47:43;4.50;;;3.00;;
44078;SDS011;29744;49.078;12.878;2023-06-26T04:52:43;4.38;;;2.85;;
44078;SDS011;29744;49.078;12.878;2023-06-26T04:57:43;4.30;;;3.05;;
44078;SDS011;29744;49.078;12.878;2023-06-26T05:02:44;3.90;;;2.78;;
44078;SDS011;29744;49.078;12.878;2023-06-26T05:07:44;4.10;;;2.53;;
44078;SDS011;29744;49.078;12.878;2023-06-26T05:12:44;4.15;;;2.67;;
44078;SDS011;29744;49.078;12.878;2023-06-26T05:17:45;4.20;;;2.70;;
44078;SDS011;29744;49.078;12.878;2023-06-26T05:22:45;3.55;;;2.42;;
44078;SDS011;29744;49.078;12.878;2023-06-26T05:27:46;5.20;;;2.90;;
44078;SDS011;29744;49.078;12.878;2023-06-26T05:32:47;4.60;;;3.47;;
44078;SDS011;29744;49.078;12.878;2023-06-26T05:37:48;6.10;;;3.65;;
44078;SDS011;29744;49.078;12.878;2023-06-26T05:42:50;4.72;;;3.42;;
44078;SDS011;29744;49.078;12.878;2023-06-26T05:47:50;5.53;;;3.50;;
44078;SDS011;29744;49.078;12.878;2023-06-26T05:52:51;5.10;;;3.70;;
44078;SDS011;29744;49.078;12.878;2023-06-26T05:57:51;6.18;;;4.00;;
44078;SDS011;29744;49.078;12.878;2023-06-26T06:02:52;5.57;;;4.28;;
44078;SDS011;29744;49.078;12.878;2023-06-26T06:07:54;5.30;;;3.67;;
44078;SDS011;29744;49.078;12.878;2023-06-26T06:12:54;5.07;;;3.45;;
44078;SDS011;29744;49.078;12.878;2023-06-26T06:17:54;5.22;;;3.75;;
44078;SDS011;29744;49.078;12.878;2023-06-26T06:22:55;4.63;;;3.28;;
44078;SDS011;29744;49.078;12.878;2023-06-26T06:27:55;4.88;;;3.30;;
44078;SDS011;29744;49.078;12.878;2023-06-26T06:32:55;6.20;;;3.20;;
44078;SDS011;29744;49.078;12.878;2023-06-26T06:37:55;4.30;;;3.15;;
44078;SDS011;29744;49.078;12.878;2023-06-26T06:42:56;5.20;;;3.47;;
44078;SDS011;29744;49.078;12.878;2023-06-26T06:47:56;4.57;;;3.17;;
44078;SDS011;29744;49.078;12.878;2023-06-26T06:52:56;4.80;;;3.23;;
44078;SDS011;29744;49.078;12.878;2023-06-26T06:57:57;5.20;;;3.20;;
44078;SDS011;29744;49.078;12.878;2023-06-26T07:02:57;5.70;;;3.15;;
44078;SDS011;29744;49.078;12.878;2023-06-26T07:07:57;5.10;;;3.35;;
44078;SDS011;29744;49.078;12.878;2023-06-26T07:12:58;6.35;;;3.38;;
44078;SDS011;29744;49.078;12.878;2023-06-26T07:17:58;5.03;;;3.30;;
44078;SDS011;29744;49.078;12.878;2023-06-26T07:22:58;9.93;;;3.25;;
44078;SDS011;29744;49.078;12.878;2023-06-26T07:27:59;6.05;;;3.58;;
44078;SDS011;29744;49.078;12.878;2023-06-26T07:32:59;4.65;;;3.20;;
44078;SDS011;29744;49.078;12.878;2023-06-26T07:37:59;4.40;;;2.97;;
44078;SDS011;29744;49.078;12.878;2023-06-26T07:42:59;4.13;;;2.85;;
44078;SDS011;29744;49.078;12.878;2023-06-26T07:48:00;5.75;;;3.08;;
44078;SDS011;29744;49.078;12.878;2023-06-26T07:53:00;4.40;;;3.00;;
44078;SDS011;29744;49.078;12.878;2023-06-26T07:58:00;4.13;;;3.00;;
44078;SDS011;29744;49.078;12.878;2023-06-26T08:03:01;5.35;;;3.33;;
44078;SDS011;29744;49.078;12.878;2023-06-26T08:08:01;4.55;;;2.95;;
44078;SDS011;29744;49.078;12.878;2023-06-26T08:13:03;4.97;;;3.40;;
44078;SDS011;29744;49.078;12.878;2023-06-26T08:18:03;4.80;;;3.00;;
44078;SDS011;29744;49.078;12.878;2023-06-26T08:23:04;4.88;;;3.13;;
44078;SDS011;29744;49.078;12.878;2023-06-26T08:28:04;4.40;;;3.05;;
44078;SDS011;29744;49.078;12.878;2023-06-26T08:33:04;4.78;;;3.08;;
44078;SDS011;29744;49.078;12.878;2023-06-26T08:38:05;4.15;;;2.80;;
44078;SDS011;29744;49.078;12.878;2023-06-26T08:43:05;4.35;;;2.80;;
44078;SDS011;29744;49.078;12.878;2023-06-26T08:48:08;4.20;;;2.75;;
44078;SDS011;29744;49.078;12.878;2023-06-26T08:58:15;4.18;;;2.95;;
44078;SDS011;29744;49.078;12.878;2023-06-26T09:03:16;4.53;;;3.17;;
44078;SDS011;29744;49.078;12.878;2023-06-26T09:08:17;4.68;;;3.17;;
44078;SDS011;29744;49.078;12.878;2023-06-26T09:13:18;5.43;;;2.90;;
44078;SDS011;29744;49.078;12.878;2023-06-26T09:18:18;4.20;;;2.97;;
44078;SDS011;29744;49.078;12.878;2023-06-26T09:23:21;4.07;;;2.83;;
44078;SDS011;29744;49.078;12.878;2023-06-26T09:28:21;3.88;;;2.70;;
44078;SDS011;29744;49.078;12.878;2023-06-26T09:33:22;5.03;;;3.17;;
44078;SDS011;29744;49.078;12.878;2023-06-26T09:38:22;4.55;;;3.10;;
44078;SDS011;29744;49.078;12.878;2023-06-26T09:43:23;5.15;;;2.85;;
44078;SDS011;29744;49.078;12.878;2023-06-26T09:48:23;4.45;;;3.05;;
44078;SDS011;29744;49.078;12.878;2023-06-26T09:53:23;4.20;;;2.75;;
44078;SDS011;29744;49.078;12.878;2023-06-26T09:58:25;4.47;;;3.13;;
44078;SDS011;29744;49.078;12.878;2023-06-26T10:03:27;5.18;;;3.28;;
44078;SDS011;29744;49.078;12.878;2023-06-26T10:08:28;5.40;;;3.15;;
44078;SDS011;29744;49.078;12.878;2023-06-26T10:13:31;4.45;;;3.05;;
44078;SDS011;29744;49.078;12.878;2023-06-26T10:18:41;4.55;;;3.30;;
44078;SDS011;29744;49.078;12.878;2023-06-26T10:23:43;4.47;;;2.95;;
44078;SDS011;29744;49.078;12.878;2023-06-26T10:28:44;4.80;;;3.20;;
44078;SDS011;29744;49.078;12.878;2023-06-26T10:33:48;5.20;;;3.80;;
44078;SDS011;29744;49.078;12.878;2023-06-26T10:38:54;5.70;;;3.53;;
44078;SDS011;29744;49.078;12.878;2023-06-26T10:49:00;4.78;;;3.45;;
44078;SDS011;29744;49.078;12.878;2023-06-26T10:54:01;5.07;;;3.50;;
44078;SDS011;29744;49.078;12.878;2023-06-26T10:59:15;4.55;;;3.15;;
44078;SDS011;29744;49.078;12.878;2023-06-26T11:04:18;4.82;;;3.33;;
44078;SDS011;29744;49.078;12.878;2023-06-26T11:09:23;4.82;;;3.20;;
44078;SDS011;29744;49.078;12.878;2023-06-26T11:14:24;4.95;;;3.28;;
44078;SDS011;29744;49.078;12.878;2023-06-26T11:19:26;4.75;;;3.13;;
44078;SDS011;29744;49.078;12.878;2023-06-26T11:24:28;4.72;;;3.30;;
44078;SDS011;29744;49.078;12.878;2023-06-26T11:29:30;4.80;;;3.40;;
44078;SDS011;29744;49.078;12.878;2023-06-26T11:34:31;5.88;;;3.38;;
44078;SDS011;29744;49.078;12.878;2023-06-26T11:39:32;4.28;;;2.85;;
44078;SDS011;29744;49.078;12.878;2023-06-26T11:44:32;4.70;;;3.33;;
44078;SDS011;29744;49.078;12.878;2023-06-26T11:49:41;4.63;;;3.42;;
44078;SDS011;29744;49.078;12.878;2023-06-26T11:54:45;4.97;;;3.58;;
44078;SDS011;29744;49.078;12.878;2023-06-26T11:59:46;5.20;;;3.53;;
44078;SDS011;29744;49.078;12.878;2023-06-26T12:04:50;4.78;;;3.33;;
44078;SDS011;29744;49.078;12.878;2023-06-26T12:09:50;4.45;;;2.95;;
44078;SDS011;29744;49.078;12.878;2023-06-26T12:14:51;5.20;;;3.38;;
44078;SDS011;29744;49.078;12.878;2023-06-26T12:19:52;5.28;;;3.55;;
44078;SDS011;29744;49.078;12.878;2023-06-26T12:24:52;5.05;;;3.65;;
44078;SDS011;29744;49.078;12.878;2023-06-26T12:29:56;5.05;;;3.20;;
44078;SDS011;29744;49.078;12.878;2023-06-26T12:34:57;5.25;;;3.42;;
44078;SDS011;29744;49.078;12.878;2023-06-26T12:39:58;5.28;;;3.25;;
44078;SDS011;29744;49.078;12.878;2023-06-26T12:44:59;4.90;;;3.20;;
44078;SDS011;29744;49.078;12.878;2023-06-26T12:50:04;4.38;;;3.10;;
44078;SDS011;29744;49.078;12.878;2023-06-26T12:55:05;4.88;;;3.30;;
44078;SDS011;29744;49.078;12.878;2023-06-26T13:00:06;5.35;;;3.30;;
44078;SDS011;29744;49.078;12.878;2023-06-26T13:05:07;6.03;;;3.50;;
44078;SDS011;29744;49.078;12.878;2023-06-26T13:10:07;4.53;;;3.13;;
44078;SDS011;29744;49.078;12.878;2023-06-26T13:15:08;4.90;;;3.33;;
44078;SDS011;29744;49.078;12.878;2023-06-26T13:20:09;4.85;;;3.25;;
44078;SDS011;29744;49.078;12.878;2023-06-26T13:25:10;5.68;;;3.53;;
44078;SDS011;29744;49.078;12.878;2023-06-26T13:30:11;5.40;;;3.80;;
44078;SDS011;29744;49.078;12.878;2023-06-26T13:35:12;4.93;;;3.40;;
44078;SDS011;29744;49.078;12.878;2023-06-26T13:40:13;5.53;;;3.83;;
44078;SDS011;29744;49.078;12.878;2023-06-26T13:45:14;5.17;;;3.53;;
44078;SDS011;29744;49.078;12.878;2023-06-26T13:50:14;5.30;;;3.53;;
44078;SDS011;29744;49.078;12.878;2023-06-26T13:55:14;4.82;;;3.53;;
44078;SDS011;29744;49.078;12.878;2023-06-26T14:00:15;5.67;;;3.93;;
44078;SDS011;29744;49.078;12.878;2023-06-26T14:05:19;5.40;;;3.85;;
44078;SDS011;29744;49.078;12.878;2023-06-26T14:10:21;5.65;;;4.03;;
44078;SDS011;29744;49.078;12.878;2023-06-26T14:15:22;6.28;;;4.20;;
44078;SDS011;29744;49.078;12.878;2023-06-26T14:20:23;6.25;;;3.95;;
44078;SDS011;29744;49.078;12.878;2023-06-26T14:25:24;5.65;;;3.88;;
44078;SDS011;29744;49.078;12.878;2023-06-26T14:30:26;5.80;;;3.75;;
44078;SDS011;29744;49.078;12.878;2023-06-26T14:35:26;6.07;;;3.97;;
44078;SDS011;29744;49.078;12.878;2023-06-26T14:40:26;5.28;;;4.00;;
44078;SDS011;29744;49.078;12.878;2023-06-26T14:45:27;4.90;;;3.60;;
44078;SDS011;29744;49.078;12.878;2023-06-26T14:50:27;5.47;;;3.90;;
44078;SDS011;29744;49.078;12.878;2023-06-26T14:55:27;5.53;;;3.83;;
44078;SDS011;29744;49.078;12.878;2023-06-26T15:00:27;6.00;;;4.30;;
44078;SDS011;29744;49.078;12.878;2023-06-26T15:05:28;6.28;;;4.50;;
44078;SDS011;29744;49.078;12.878;2023-06-26T15:10:28;8.70;;;4.30;;
44078;SDS011;29744;49.078;12.878;2023-06-26T15:15:28;6.00;;;4.38;;
44078;SDS011;29744;49.078;12.878;2023-06-26T15:20:29;6.07;;;4.03;;
44078;SDS011;29744;49.078;12.878;2023-06-26T15:25:29;6.40;;;4.35;;
44078;SDS011;29744;49.078;12.878;2023-06-26T15:30:31;6.28;;;4.28;;
44078;SDS011;29744;49.078;12.878;2023-06-26T15:35:31;6.63;;;4.13;;
44078;SDS011;29744;49.078;12.878;2023-06-26T15:40:32;9.50;;;4.60;;
44078;SDS011;29744;49.078;12.878;2023-06-26T15:45:32;5.72;;;4.00;;
44078;SDS011;29744;49.078;12.878;2023-06-26T15:50:32;7.68;;;4.43;;
44078;SDS011;29744;49.078;12.878;2023-06-26T15:55:33;6.68;;;4.30;;
44078;SDS011;29744;49.078;12.878;2023-06-26T16:00:33;6.47;;;4.30;;
44078;SDS011;29744;49.078;12.878;2023-06-26T16:05:33;7.28;;;3.95;;
44078;SDS011;29744;49.078;12.878;2023-06-26T16:10:33;6.72;;;4.20;;
44078;SDS011;29744;49.078;12.878;2023-06-26T16:15:34;6.82;;;4.28;;
44078;SDS011;29744;49.078;12.878;2023-06-26T16:20:34;6.82;;;4.72;;
44078;SDS011;29744;49.078;12.878;2023-06-26T16:25:34;6.88;;;4.13;;
44078;SDS011;29744;49.078;12.878;2023-06-26T16:30:35;6.30;;;4.10;;
44078;SDS011;29744;49.078;12.878;2023-06-26T16:35:35;6.25;;;4.13;;
44078;SDS011;29744;49.078;12.878;2023-06-26T16:40:36;5.93;;;3.63;;
44078;SDS011;29744;49.078;12.878;2023-06-26T16:45:37;4.80;;;3.35;;
44078;SDS011;29744;49.078;12.878;2023-06-26T16:50:37;5.88;;;3.70;;
44078;SDS011;29744;49.078;12.878;2023-06-26T16:55:37;5.45;;;3.60;;
44078;SDS011;29744;49.078;12.878;2023-06-26T17:00:38;6.63;;;3.90;;
44078;SDS011;29744;49.078;12.878;2023-06-26T17:05:38;5.50;;;3.70;;
44078;SDS011;29744;49.078;12.878;2023-06-26T17:10:39;5.05;;;3.50;;
44078;SDS011;29744;49.078;12.878;2023-06-26T17:15:39;5.65;;;3.55;;
44078;SDS011;29744;49.078;12.878;2023-06-26T17:20:39;5.43;;;3.60;;
44078;SDS011;29744;49.078;12.878;2023-06-26T17:25:40;5.78;;;3.67;;
44078;SDS011;29744;49.078;12.878;2023-06-26T17:30:40;4.90;;;3.42;;
44078;SDS011;29744;49.078;12.878;2023-06-26T17:35:42;5.80;;;3.83;;
44078;SDS011;29744;49.078;12.878;2023-06-26T17:40:42;5.88;;;4.00;;
44078;SDS011;29744;49.078;12.878;2023-06-26T17:45:42;4.93;;;3.40;;
44078;SDS011;29744;49.078;12.878;2023-06-26T17:50:43;5.35;;;3.60;;
44078;SDS011;29744;49.078;12.878;2023-06-26T17:55:43;4.88;;;3.38;;
44078;SDS011;29744;49.078;12.878;2023-06-26T18:00:43;5.50;;;3.63;;
44078;SDS011;29744;49.078;12.878;2023-06-26T18:05:44;5.37;;;3.70;;
44078;SDS011;29744;49.078;12.878;2023-06-26T18:10:44;5.57;;;3.20;;
44078;SDS011;29744;49.078;12.878;2023-06-26T18:15:44;5.45;;;3.72;;
44078;SDS011;29744;49.078;12.878;2023-06-26T18:20:44;5.10;;;3.45;;
44078;SDS011;29744;49.078;12.878;2023-06-26T18:25:45;5.47;;;3.57;;
44078;SDS011;29744;49.078;12.878;2023-06-26T18:30:45;5.05;;;3.35;;
44078;SDS011;29744;49.078;12.878;2023-06-26T18:35:45;5.25;;;3.30;;
44078;SDS011;29744;49.078;12.878;2023-06-26T18:40:46;5.57;;;3.80;;
44078;SDS011;29744;49.078;12.878;2023-06-26T18:45:50;5.28;;;3.55;;
44078;SDS011;29744;49.078;12.878;2023-06-26T18:50:50;5.20;;;3.50;;
44078;SDS011;29744;49.078;12.878;2023-06-26T18:55:50;4.72;;;3.30;;
44078;SDS011;29744;49.078;12.878;2023-06-26T19:00:51;4.97;;;3.03;;
44078;SDS011;29744;49.078;12.878;2023-06-26T19:05:51;5.13;;;3.43;;
44078;SDS011;29744;49.078;12.878;2023-06-26T19:10:51;5.00;;;3.50;;
44078;SDS011;29744;49.078;12.878;2023-06-26T19:15:52;5.40;;;3.17;;
44078;SDS011;29744;49.078;12.878;2023-06-26T19:20:52;5.15;;;3.55;;
44078;SDS011;29744;49.078;12.878;2023-06-26T19:25:53;5.18;;;3.33;;
44078;SDS011;29744;49.078;12.878;2023-06-26T19:30:53;4.80;;;3.22;;
44078;SDS011;29744;49.078;12.878;2023-06-26T19:35:53;5.25;;;3.40;;
44078;SDS011;29744;49.078;12.878;2023-06-26T19:40:53;4.95;;;3.53;;
44078;SDS011;29744;49.078;12.878;2023-06-26T19:45:54;5.47;;;3.53;;
44078;SDS011;29744;49.078;12.878;2023-06-26T19:50:54;5.50;;;3.42;;
44078;SDS011;29744;49.078;12.878;2023-06-26T19:55:54;4.85;;;3.25;;
44078;SDS011;29744;49.078;12.878;2023-06-26T20:00:55;4.60;;;3.30;;
44078;SDS011;29744;49.078;12.878;2023-06-26T20:05:55;5.20;;;3.22;;
44078;SDS011;29744;49.078;12.878;2023-06-26T20:10:56;4.82;;;3.33;;
44078;SDS011;29744;49.078;12.878;2023-06-26T20:15:56;4.82;;;3.05;;
44078;SDS011;29744;49.078;12.878;2023-06-26T20:20:57;5.07;;;3.00;;
44078;SDS011;29744;49.078;12.878;2023-06-26T20:25:58;4.72;;;3.10;;
44078;SDS011;29744;49.078;12.878;2023-06-26T20:30:58;4.78;;;3.40;;
44078;SDS011;29744;49.078;12.878;2023-06-26T20:35:58;4.60;;;2.95;;
44078;SDS011;29744;49.078;12.878;2023-06-26T20:40:58;4.45;;;2.85;;
44078;SDS011;29744;49.078;12.878;2023-06-26T20:46:00;4.68;;;3.20;;
44078;SDS011;29744;49.078;12.878;2023-06-26T20:51:01;4.97;;;3.40;;
44078;SDS011;29744;49.078;12.878;2023-06-26T20:56:01;4.32;;;2.97;;
44078;SDS011;29744;49.078;12.878;2023-06-26T21:01:02;4.80;;;3.20;;
44078;SDS011;29744;49.078;12.878;2023-06-26T21:06:02;5.43;;;3.25;;
44078;SDS011;29744;49.078;12.878;2023-06-26T21:11:03;4.60;;;3.20;;
44078;SDS011;29744;49.078;12.878;2023-06-26T21:16:03;4.82;;;3.13;;
44078;SDS011;29744;49.078;12.878;2023-06-26T21:21:03;4.50;;;3.08;;
44078;SDS011;29744;49.078;12.878;2023-06-26T21:26:03;5.68;;;3.17;;
44078;SDS011;29744;49.078;12.878;2023-06-26T21:31:04;5.00;;;3.40;;
44078;SDS011;29744;49.078;12.878;2023-06-26T21:36:04;4.88;;;3.22;;
44078;SDS011;29744;49.078;12.878;2023-06-26T21:41:05;5.40;;;3.40;;
44078;SDS011;29744;49.078;12.878;2023-06-26T21:46:05;4.75;;;3.42;;
44078;SDS011;29744;49.078;12.878;2023-06-26T21:51:05;4.20;;;2.92;;
44078;SDS011;29744;49.078;12.878;2023-06-26T21:56:06;4.72;;;3.05;;
44078;SDS011;29744;49.078;12.878;2023-06-26T22:01:06;4.40;;;2.90;;
44078;SDS011;29744;49.078;12.878;2023-06-26T22:06:07;5.70;;;3.65;;
44078;SDS011;29744;49.078;12.878;2023-06-26T22:11:07;4.78;;;3.25;;
44078;SDS011;29744;49.078;12.878;2023-06-26T22:16:07;5.10;;;3.50;;
44078;SDS011;29744;49.078;12.878;2023-06-26T22:21:08;4.80;;;3.15;;
44078;SDS011;29744;49.078;12.878;2023-06-26T22:26:08;4.78;;;3.15;;
44078;SDS011;29744;49.078;12.878;2023-06-26T22:31:08;4.55;;;3.30;;
44078;SDS011;29744;49.078;12.878;2023-06-26T22:36:09;5.07;;;3.50;;
44078;SDS011;29744;49.078;12.878;2023-06-26T22:41:09;4.43;;;3.10;;
44078;SDS011;29744;49.078;12.878;2023-06-26T22:46:09;4.80;;;3.25;;
44078;SDS011;29744;49.078;12.878;2023-06-26T22:51:09;4.97;;;3.22;;
44078;SDS011;29744;49.078;12.878;2023-06-26T22:56:10;4.85;;;3.25;;
44078;SDS011;29744;49.078;12.878;2023-06-26T23:01:10;4.60;;;3.35;;
44078;SDS011;29744;49.078;12.878;2023-06-26T23:06:14;4.78;;;3.22;;
44078;SDS011;29744;49.078;12.878;2023-06-26T23:11:21;4.68;;;3.10;;
44078;SDS011;29744;49.078;12.878;2023-06-26T23:16:21;5.15;;;3.38;;
44078;SDS011;29744;49.078;12.878;2023-06-26T23:21:22;4.90;;;3.45;;
44078;SDS011;29744;49.078;12.878;2023-06-26T23:26:22;4.80;;;3.22;;
44078;SDS011;29744;49.078;12.878;2023-06-26T23:31:23;4.55;;;3.08;;
44078;SDS011;29744;49.078;12.878;2023-06-26T23:36:24;4.47;;;3.03;;
44078;SDS011;29744;49.078;12.878;2023-06-26T23:41:26;4.80;;;3.20;;
44078;SDS011;29744;49.078;12.878;2023-06-26T23:46:27;4.43;;;2.95;;
44078;SDS011;29744;49.078;12.878;2023-06-26T23:51:28;5.05;;;3.33;;
44078;SDS011;29744;49.078;12.878;2023-06-26T23:56:29;4.53;;;3.20;;
